Portada
METAR-TAF:

METAR-TAF

Aeroports :

Ranong, Tailàndia

latitud: 09-59N, longitud: 098-37E, altitud: 7 m

Observació

L'informe es va fer fa 29 minuts, a les 12:00 UTC
Vent 7 kt amb direcció variable amb ràfegues de 17 kt
Temperatura 25°C
Humitat 74%
Pressió 1012 hPa
Visibilitat 10 km o més
Escasses núvols a una alçada de 2000 ft

METAR: VTSR 071200Z VRB07G17KT 9999 FEW020 25/20 Q1012 NOSIG

Hora: 19:29 (12:29 UTC)

Pronòstic

L'informe es va fer fa 1 hora i 29 minuts, a les 11:00 UTC
Pronòstic vàlid del 07 a les 12 UTC al 08 a les 12 UTC
Vent 14 kt del Est
Visibilitat 10 km o més
Escasses núvols a una alçada de 3000 ft
Temporalment
l' 07 a les 12 UTC al 07 a les 18 UTC
Vent 15 kt del Est amb ràfegues de 35 kt
Temporalment
l' 07 a les 22 UTC al 08 a les 04 UTC
Vent 15 kt del Est amb ràfegues de 35 kt

TAF: VTSR 071100Z 0712/0812 08014KT 9999 FEW030 TEMPO 0712/0718 08015G35KT TEMPO 0722/0804 08015G35KT

Observacions i pronòstics meteorològics de més de 4000 aeroports (METAR i TAF).

Les estacions disponibles són els punts grocs i vermells al mapa.

Posi el ratolí al punt desitjat per veure el nom de l'estació.

Feu clic per veure les observacions i els pronòstics meteorològics.

Per canviar el mapa: feu clic els botons verds amb una creu de color negre per apropar; al botó verd amb un guió per allunyar la imatge; o en les fletxes verdes per a mapes adjacents.


METAR-TAF: